X  Schlie├čen METAR Luftfahrt Wetterdaten     EHRD Rotterdam The Hague Airport
Temperatur
18°C Temperatur
15°C Taupunkt
83% Feuchtigkeit



Wind
11 KM/S
7 MPS
3 M/S
6 KTS



110°
OSO
Aktuelle Wetterlage

Klar Klar
Luftdruck 1015.92 (hPa) - 30 (inHg)
Sichtweite 6.2 (Meile) - 10 (Km)
Flughafen
Flughafen Code EHRD

Position : Rotterdam The Hague Airport
Entfernung: 14 (Km)

Metar:
EHRD 190125Z AUTO 11006KT 9999 NSC 18/15 Q1016 TEMPO 6000 TSRA BKN070CB

Zeit: 19-05-2022 03:25 CEST